createdAt,value
2023-05-22T00:00:03.853Z,1374.00
2023-05-22T00:01:03.913Z,1383.00
2023-05-22T00:02:03.977Z,1388.00
2023-05-22T00:03:04.091Z,1422.00
2023-05-22T00:04:04.075Z,1450.00
2023-05-22T00:05:04.251Z,1446.00
2023-05-22T00:06:04.167Z,1468.00
2023-05-22T00:07:04.222Z,1476.00
2023-05-22T00:08:04.269Z,1516.00
2023-05-22T00:09:04.328Z,1521.00
2023-05-22T00:10:04.375Z,1491.00
2023-05-22T00:11:04.425Z,1512.00
2023-05-22T00:12:04.463Z,1491.00
2023-05-22T00:13:04.532Z,1493.00
2023-05-22T00:14:04.596Z,1507.00
2023-05-22T00:15:04.636Z,1509.00
2023-05-22T00:16:04.698Z,1505.00
2023-05-22T00:17:04.811Z,1478.00
2023-05-22T00:18:04.816Z,1508.00
2023-05-22T00:19:04.903Z,1522.00
2023-05-22T00:20:04.937Z,1514.00
2023-05-22T00:21:05.053Z,1523.00
2023-05-22T00:22:05.031Z,1530.00
2023-05-22T00:23:05.079Z,1509.00
2023-05-22T00:24:05.135Z,1526.00
2023-05-22T00:25:05.191Z,1542.00
2023-05-22T00:26:05.266Z,1528.00
2023-05-22T00:27:05.325Z,1547.00
2023-05-22T00:28:05.371Z,1581.00
2023-05-22T00:29:05.446Z,1570.00
2023-05-22T00:30:05.499Z,1542.00
2023-05-22T00:31:05.563Z,1580.00
2023-05-22T00:32:05.708Z,1559.00
2023-05-22T00:33:05.714Z,1577.00
2023-05-22T00:34:05.738Z,1538.00
2023-05-22T00:35:05.794Z,1543.00
2023-05-22T00:36:05.832Z,1522.00
2023-05-22T00:37:05.904Z,1510.00
2023-05-22T00:38:05.945Z,1511.00
2023-05-22T00:39:06.050Z,1494.00
2023-05-22T00:40:06.071Z,1495.00
2023-05-22T00:41:06.144Z,1511.00
2023-05-22T00:42:06.215Z,1513.00
2023-05-22T00:43:06.241Z,1528.00
2023-05-22T00:44:06.310Z,1554.00
2023-05-22T00:45:06.388Z,1540.00
2023-05-22T00:46:06.433Z,1529.00
2023-05-22T00:47:06.471Z,1506.00
2023-05-22T00:48:06.544Z,1483.00
2023-05-22T00:49:06.575Z,1467.00
2023-05-22T00:50:06.620Z,1455.00
2023-05-22T00:51:06.683Z,1459.00
2023-05-22T00:52:06.765Z,1475.00
2023-05-22T00:53:06.776Z,1492.00
2023-05-22T00:54:06.850Z,1488.00
2023-05-22T00:55:06.893Z,1517.00
2023-05-22T00:56:06.954Z,1553.00
2023-05-22T00:57:07.052Z,1565.00
2023-05-22T00:58:07.083Z,1564.00
2023-05-22T00:59:07.124Z,1538.00
2023-05-22T01:00:07.196Z,1592.00
2023-05-22T01:01:07.256Z,1608.00
2023-05-22T01:02:07.440Z,1618.00
2023-05-22T01:03:07.441Z,1628.00
2023-05-22T01:04:07.466Z,1621.00
2023-05-22T01:05:07.499Z,1591.00
2023-05-22T01:06:07.545Z,1577.00
2023-05-22T01:07:07.635Z,1553.00
2023-05-22T01:08:07.655Z,1556.00
2023-05-22T01:09:07.712Z,1577.00
2023-05-22T01:10:07.792Z,1581.00
2023-05-22T01:11:07.865Z,1626.00
2023-05-22T01:12:07.898Z,1652.00
2023-05-22T01:13:07.956Z,1653.00
2023-05-22T01:14:08.043Z,1649.00
2023-05-22T01:15:08.080Z,1656.00
2023-05-22T01:16:08.201Z,1640.00
2023-05-22T01:17:08.204Z,1650.00
2023-05-22T01:18:08.334Z,1672.00
2023-05-22T01:19:08.356Z,1649.00
2023-05-22T01:20:08.385Z,1660.00
2023-05-22T01:21:08.432Z,1657.00
2023-05-22T01:22:08.516Z,1706.00
2023-05-22T01:23:08.564Z,1693.00
2023-05-22T01:24:08.604Z,1697.00
2023-05-22T01:25:08.680Z,1684.00
2023-05-22T01:26:08.736Z,1666.00
2023-05-22T01:27:08.805Z,1653.00
2023-05-22T01:28:08.855Z,1686.00
2023-05-22T01:29:08.929Z,1684.00
2023-05-22T01:30:08.988Z,1673.00
2023-05-22T01:31:09.052Z,1700.00
2023-05-22T01:32:09.105Z,1664.00
2023-05-22T01:33:09.262Z,1707.00
2023-05-22T01:34:09.227Z,1727.00
2023-05-22T01:35:09.310Z,1761.00
2023-05-22T01:36:09.364Z,1792.00
2023-05-22T01:37:09.410Z,1764.00
2023-05-22T01:38:09.472Z,1764.00
2023-05-22T01:39:09.555Z,1779.00
2023-05-22T01:40:09.616Z,1790.00
2023-05-22T01:41:09.660Z,1793.00
2023-05-22T01:42:09.722Z,1800.00
2023-05-22T01:43:09.799Z,1814.00
2023-05-22T01:44:09.870Z,1798.00
2023-05-22T01:45:09.916Z,1787.00
2023-05-22T01:46:10.091Z,1768.00
2023-05-22T01:47:10.096Z,1777.00
2023-05-22T01:48:10.237Z,1798.00
2023-05-22T01:49:10.169Z,1772.00
2023-05-22T01:50:10.217Z,1772.00
2023-05-22T01:51:10.276Z,1773.00
2023-05-22T01:52:10.360Z,1769.00
2023-05-22T01:53:10.409Z,1759.00
2023-05-22T01:54:10.491Z,1783.00
2023-05-22T01:55:10.535Z,1763.00
2023-05-22T01:56:10.614Z,1728.00
2023-05-22T01:57:10.671Z,1728.00
2023-05-22T01:58:10.756Z,1710.00
2023-05-22T01:59:10.785Z,1714.00
2023-05-22T02:00:10.842Z,1687.00
2023-05-22T02:01:11.130Z,1664.00
2023-05-22T02:02:11.052Z,1682.00
2023-05-22T02:03:11.097Z,1656.00
2023-05-22T02:04:11.100Z,1686.00
2023-05-22T02:05:11.150Z,1688.00
2023-05-22T02:06:11.281Z,1723.00
2023-05-22T02:07:12.243Z,1704.00
2023-05-22T02:08:11.330Z,1710.00
2023-05-22T02:09:11.411Z,1719.00
2023-05-22T02:10:11.498Z,1677.00
2023-05-22T02:11:11.499Z,1673.00
2023-05-22T02:12:11.574Z,1709.00
2023-05-22T02:13:11.618Z,1734.00
2023-05-22T02:14:11.695Z,1758.00
2023-05-22T02:15:11.740Z,1754.00
2023-05-22T02:16:11.840Z,1764.00
2023-05-22T02:17:11.858Z,1780.00
2023-05-22T02:18:11.976Z,1778.00
2023-05-22T02:19:11.994Z,1766.00
2023-05-22T02:20:12.022Z,1732.00
2023-05-22T02:21:12.055Z,1763.00
2023-05-22T02:22:12.076Z,1744.00
2023-05-22T02:23:12.132Z,1742.00
2023-05-22T02:24:12.167Z,1726.00
2023-05-22T02:25:12.204Z,1693.00
2023-05-22T02:26:12.282Z,1717.00
2023-05-22T02:27:12.322Z,1701.00
2023-05-22T02:28:12.378Z,1727.00
2023-05-22T02:29:12.424Z,1724.00
2023-05-22T02:30:12.496Z,1717.00
2023-05-22T02:31:12.523Z,1750.00
2023-05-22T02:32:12.571Z,1765.00
2023-05-22T02:33:12.618Z,1768.00
2023-05-22T02:34:12.655Z,1795.00
2023-05-22T02:35:12.722Z,1804.00
2023-05-22T02:36:12.746Z,1824.00
2023-05-22T02:37:12.827Z,1847.00
2023-05-22T02:38:12.943Z,1839.00
2023-05-22T02:39:12.901Z,1837.00
2023-05-22T02:40:12.980Z,1822.00
2023-05-22T02:41:13.016Z,1856.00
2023-05-22T02:42:13.088Z,1860.00
2023-05-22T02:43:13.154Z,1895.00
2023-05-22T02:44:13.188Z,1894.00
2023-05-22T02:45:13.220Z,1894.00
2023-05-22T02:46:13.328Z,1905.00
2023-05-22T02:47:13.328Z,1913.00
2023-05-22T02:48:13.421Z,1886.00
2023-05-22T02:49:13.438Z,1884.00
2023-05-22T02:50:13.479Z,1895.00
2023-05-22T02:51:13.505Z,1882.00
2023-05-22T02:52:13.540Z,1877.00
2023-05-22T02:53:13.587Z,1897.00
2023-05-22T02:54:13.592Z,1871.00
2023-05-22T02:55:13.663Z,1904.00
2023-05-22T02:56:13.698Z,1889.00
2023-05-22T02:57:13.748Z,1924.00
2023-05-22T02:58:13.789Z,1926.00
2023-05-22T02:59:13.843Z,1920.00
2023-05-22T03:00:13.903Z,1933.00
2023-05-22T03:01:14.005Z,1938.00
2023-05-22T03:02:13.975Z,1945.00
2023-05-22T03:03:14.136Z,1974.00
2023-05-22T03:04:14.123Z,1992.00
2023-05-22T03:05:14.114Z,1983.00
2023-05-22T03:06:14.143Z,1989.00
2023-05-22T03:07:14.182Z,2009.00
2023-05-22T03:08:14.214Z,1987.00
2023-05-22T03:09:14.247Z,1983.00
2023-05-22T03:10:14.302Z,1971.00
2023-05-22T03:11:14.313Z,1955.00
2023-05-22T03:12:14.355Z,1932.00
2023-05-22T03:13:14.373Z,1931.00
2023-05-22T03:14:14.396Z,1904.00
2023-05-22T03:15:14.414Z,1889.00
2023-05-22T03:16:14.454Z,1854.00
2023-05-22T03:17:14.448Z,1833.00
2023-05-22T03:18:14.466Z,1824.00
2023-05-22T03:19:14.515Z,1833.00
2023-05-22T03:20:14.521Z,1822.00
2023-05-22T03:21:14.513Z,1821.00
2023-05-22T03:22:14.550Z,1803.00
2023-05-22T03:23:14.575Z,1801.00
2023-05-22T03:24:14.571Z,1830.00
2023-05-22T03:25:14.603Z,1848.00
2023-05-22T03:26:14.641Z,1867.00
2023-05-22T03:27:14.681Z,1901.00
2023-05-22T03:28:14.690Z,1915.00
2023-05-22T03:29:14.738Z,1937.00
2023-05-22T03:30:14.762Z,1986.00
2023-05-22T03:31:14.746Z,1975.00
2023-05-22T03:32:14.755Z,1984.00
2023-05-22T03:33:14.790Z,2011.00
2023-05-22T03:34:14.813Z,1979.00
2023-05-22T03:35:14.814Z,1986.00
2023-05-22T03:36:14.836Z,1991.00
2023-05-22T03:37:14.842Z,1983.00
2023-05-22T03:38:14.922Z,1999.00
2023-05-22T03:39:14.898Z,2018.00
2023-05-22T03:40:14.958Z,1994.00
2023-05-22T03:41:14.954Z,1991.00
2023-05-22T03:42:14.963Z,2000.00
2023-05-22T03:43:14.979Z,2033.00
2023-05-22T03:44:14.950Z,2022.00
2023-05-22T03:45:14.966Z,2014.00
2023-05-22T03:46:14.994Z,2042.00
2023-05-22T03:47:14.973Z,2070.00
2023-05-22T03:48:14.994Z,2078.00
2023-05-22T03:49:15.072Z,2084.00
2023-05-22T03:50:14.977Z,2093.00
2023-05-22T03:51:14.993Z,2094.00
2023-05-22T03:52:15.003Z,2082.00
2023-05-22T03:53:14.979Z,2054.00
2023-05-22T03:54:14.977Z,2051.00
2023-05-22T03:55:14.950Z,2052.00
2023-05-22T03:56:14.977Z,2043.00
2023-05-22T03:57:14.975Z,2059.00
2023-05-22T03:58:14.994Z,2096.00
2023-05-22T03:59:14.991Z,2089.00
2023-05-22T04:00:15.024Z,2090.00
2023-05-22T04:01:15.030Z,2066.00
2023-05-22T04:02:15.100Z,2075.00
2023-05-22T04:03:15.282Z,2070.00
2023-05-22T04:04:15.100Z,2067.00
2023-05-22T04:05:15.136Z,2053.00
2023-05-22T04:06:15.160Z,2035.00
2023-05-22T04:07:15.206Z,2009.00
2023-05-22T04:08:15.238Z,1974.00
2023-05-22T04:09:15.248Z,2006.00
2023-05-22T04:10:15.290Z,2015.00
2023-05-22T04:11:15.312Z,2008.00
2023-05-22T04:12:15.344Z,1982.00
2023-05-22T04:13:15.344Z,1973.00
2023-05-22T04:14:15.372Z,1990.00
2023-05-22T04:15:15.392Z,1986.00
2023-05-22T04:16:15.443Z,2007.00
2023-05-22T04:17:15.420Z,2015.00
2023-05-22T04:18:15.445Z,2017.00
2023-05-22T04:19:15.492Z,2024.00
2023-05-22T04:20:15.494Z,2028.00
2023-05-22T04:21:15.524Z,2027.00
2023-05-22T04:22:15.547Z,2031.00
2023-05-22T04:23:15.606Z,2031.00
2023-05-22T04:24:15.653Z,2058.00
2023-05-22T04:25:15.692Z,2040.00
2023-05-22T04:26:15.727Z,2053.00
2023-05-22T04:27:15.736Z,2027.00
2023-05-22T04:28:15.746Z,2024.00
2023-05-22T04:29:15.770Z,1963.00
2023-05-22T04:30:15.783Z,1892.00
2023-05-22T04:31:15.850Z,1894.00
2023-05-22T04:32:15.865Z,1853.00
2023-05-22T04:33:15.948Z,1858.00
2023-05-22T04:34:15.889Z,1921.00
2023-05-22T04:35:15.909Z,1973.00
2023-05-22T04:36:15.972Z,1999.00
2023-05-22T04:37:16.054Z,2031.00
2023-05-22T04:38:16.072Z,2058.00
2023-05-22T04:39:16.121Z,2102.00
2023-05-22T04:40:16.144Z,2106.00
2023-05-22T04:41:16.192Z,2106.00
2023-05-22T04:42:16.315Z,2096.00
2023-05-22T04:43:16.276Z,2060.00
2023-05-22T04:44:16.319Z,2033.00
2023-05-22T04:45:16.378Z,2038.00
2023-05-22T04:46:16.477Z,2019.00
2023-05-22T04:47:16.480Z,2003.00
2023-05-22T04:48:16.525Z,2030.00
2023-05-22T04:49:16.544Z,2038.00
2023-05-22T04:50:16.580Z,2055.00
2023-05-22T04:51:16.640Z,2055.00
2023-05-22T04:52:16.684Z,2078.00
2023-05-22T04:53:16.802Z,2068.00
2023-05-22T04:54:16.843Z,2048.00
2023-05-22T04:55:16.900Z,2026.00
2023-05-22T04:56:27.870Z,2033.00
2023-05-22T04:57:17.943Z,2034.00
2023-05-22T04:58:16.934Z,2030.00
2023-05-22T04:59:16.947Z,1996.00
2023-05-22T05:00:17.033Z,2026.00
2023-05-22T05:01:16.960Z,2070.00
2023-05-22T05:02:16.920Z,2073.00
2023-05-22T05:03:17.012Z,2110.00
2023-05-22T05:04:16.888Z,2118.00
2023-05-22T05:05:16.891Z,2151.00
2023-05-22T05:06:16.914Z,2148.00
2023-05-22T05:07:16.979Z,2175.00
2023-05-22T05:08:17.022Z,2187.00
2023-05-22T05:09:17.059Z,2222.00
2023-05-22T05:10:17.107Z,2243.00
2023-05-22T05:11:17.143Z,2276.00
2023-05-22T05:12:17.189Z,2313.00
2023-05-22T05:13:17.220Z,2353.00
2023-05-22T05:14:17.250Z,2352.00
2023-05-22T05:15:17.290Z,2385.00
2023-05-22T05:16:17.359Z,2433.00
2023-05-22T05:17:17.470Z,2464.00
2023-05-22T05:18:17.445Z,2505.00
2023-05-22T05:19:17.450Z,2550.00
2023-05-22T05:20:17.438Z,2600.00
2023-05-22T05:21:17.506Z,2496.00
2023-05-22T05:22:17.530Z,2464.00
2023-05-22T05:23:17.552Z,2507.00
2023-05-22T05:24:17.580Z,2592.00
2023-05-22T05:25:17.587Z,2620.00
2023-05-22T05:26:17.630Z,2688.00
2023-05-22T05:27:17.943Z,2836.00
2023-05-22T05:28:17.669Z,2947.00
2023-05-22T05:29:17.747Z,3040.00
2023-05-22T05:30:20.325Z,3116.00
2023-05-22T05:31:17.772Z,3181.00
2023-05-22T05:32:17.867Z,3267.00
2023-05-22T05:33:17.736Z,3345.00
2023-05-22T05:34:17.718Z,3434.00
2023-05-22T05:35:17.741Z,3455.00
2023-05-22T05:36:17.713Z,3469.00
2023-05-22T05:37:17.748Z,3482.00
2023-05-22T05:38:17.712Z,3478.00
2023-05-22T05:39:17.721Z,3520.00
2023-05-22T05:40:17.703Z,3567.00
2023-05-22T05:41:17.686Z,3559.00
2023-05-22T05:42:17.691Z,3574.00
2023-05-22T05:43:17.683Z,3611.00
2023-05-22T05:44:17.743Z,3622.00
2023-05-22T05:45:17.672Z,3638.00
2023-05-22T05:46:17.725Z,3650.00
2023-05-22T05:47:17.646Z,3666.00
2023-05-22T05:48:17.650Z,3657.00
2023-05-22T05:49:17.631Z,3631.00
2023-05-22T05:50:17.650Z,3615.00
2023-05-22T05:51:17.628Z,3539.00
2023-05-22T05:52:17.629Z,3524.00
2023-05-22T05:53:17.631Z,3527.00
2023-05-22T05:54:17.614Z,3551.00
2023-05-22T05:55:17.613Z,3575.00
2023-05-22T05:56:17.587Z,3586.00
2023-05-22T05:57:17.596Z,3576.00
2023-05-22T05:58:17.606Z,3589.00
2023-05-22T05:59:17.563Z,3591.00
2023-05-22T06:00:17.580Z,3611.00
2023-05-22T06:01:17.552Z,3615.00
2023-05-22T06:02:17.600Z,3638.00
2023-05-22T06:03:17.665Z,3623.00
2023-05-22T06:04:17.556Z,3590.00
2023-05-22T06:05:17.575Z,3615.00
2023-05-22T06:06:17.563Z,3591.00
2023-05-22T06:07:17.559Z,3629.00
2023-05-22T06:08:17.536Z,3586.00
2023-05-22T06:09:17.534Z,3608.00
2023-05-22T06:10:17.508Z,3585.00
2023-05-22T06:11:17.504Z,3601.00
2023-05-22T06:12:17.488Z,3625.00
2023-05-22T06:13:17.472Z,3626.00
2023-05-22T06:14:17.478Z,3610.00
2023-05-22T06:15:17.477Z,3638.00
2023-05-22T06:16:17.537Z,3637.00
2023-05-22T06:17:17.467Z,3653.00
2023-05-22T06:18:17.489Z,3624.00
2023-05-22T06:19:17.464Z,3593.00
2023-05-22T06:20:17.453Z,3595.00
2023-05-22T06:21:17.425Z,3601.00
2023-05-22T06:22:17.422Z,3600.00
2023-05-22T06:23:17.503Z,3526.00
2023-05-22T06:24:17.418Z,3567.00
2023-05-22T06:25:17.405Z,3541.00
2023-05-22T06:26:17.382Z,3544.00
2023-05-22T06:27:17.387Z,3535.00
2023-05-22T06:28:17.382Z,3544.00
2023-05-22T06:29:17.511Z,3520.00
2023-05-22T06:30:28.171Z,3512.00
2023-05-22T06:31:18.391Z,3513.00
2023-05-22T06:32:17.429Z,3441.00
2023-05-22T06:33:17.398Z,3385.00
2023-05-22T06:34:17.371Z,3322.00
2023-05-22T06:35:17.345Z,3316.00
2023-05-22T06:36:17.326Z,2971.00
2023-05-22T06:37:17.327Z,3180.00
2023-05-22T06:38:17.335Z,3268.00
2023-05-22T06:39:17.305Z,3300.00
2023-05-22T06:40:17.303Z,3296.00
2023-05-22T06:41:17.387Z,3292.00
2023-05-22T06:42:17.416Z,3264.00
2023-05-22T06:43:17.467Z,3135.00
2023-05-22T06:44:17.544Z,3076.00
2023-05-22T06:45:17.699Z,3071.00
2023-05-22T06:46:17.704Z,3160.00
2023-05-22T06:47:17.985Z,3202.00
2023-05-22T06:48:17.742Z,3244.00
2023-05-22T06:49:17.794Z,3251.00
2023-05-22T06:50:17.816Z,3274.00
2023-05-22T06:51:17.950Z,2834.00
2023-05-22T06:52:17.928Z,2564.00
2023-05-22T06:53:17.997Z,2326.00
2023-05-22T06:54:18.039Z,2119.00
2023-05-22T06:55:18.083Z,1862.00
2023-05-22T06:56:18.106Z,1646.00
2023-05-22T06:57:18.112Z,1469.00
2023-05-22T06:58:18.122Z,1492.00
2023-05-22T06:59:18.135Z,1440.00
2023-05-22T07:00:20.186Z,1428.00
2023-05-22T07:01:18.192Z,1425.00
2023-05-22T07:02:18.128Z,1412.00
2023-05-22T07:03:18.119Z,1394.00
2023-05-22T07:04:18.099Z,1439.00
2023-05-22T07:05:18.150Z,1418.00
2023-05-22T07:06:18.326Z,1375.00
2023-05-22T07:07:18.098Z,1297.00
2023-05-22T07:08:18.068Z,1233.00
2023-05-22T07:09:18.068Z,1249.00
2023-05-22T07:10:18.080Z,1243.00
2023-05-22T07:11:18.056Z,1251.00
2023-05-22T07:12:18.057Z,1237.00
2023-05-22T07:13:18.037Z,1317.00
2023-05-22T07:14:18.057Z,1292.00
2023-05-22T07:15:18.034Z,1262.00
2023-05-22T07:16:18.062Z,1226.00
2023-05-22T07:17:18.582Z,1164.00
2023-05-22T07:18:18.015Z,1133.00
2023-05-22T07:19:18.057Z,1250.00
2023-05-22T07:20:18.004Z,1242.00
2023-05-22T07:21:17.975Z,1192.00
2023-05-22T07:22:18.040Z,1242.00
2023-05-22T07:23:17.973Z,1187.00
2023-05-22T07:24:17.987Z,1140.00
2023-05-22T07:25:17.955Z,1094.00
2023-05-22T07:26:17.969Z,1328.00
2023-05-22T07:27:17.987Z,1298.00
2023-05-22T07:28:17.957Z,1335.00
2023-05-22T07:29:17.938Z,1469.00
2023-05-22T07:30:17.944Z,1363.00
2023-05-22T07:31:17.955Z,1447.00
2023-05-22T07:32:17.913Z,1822.00
2023-05-22T07:33:18.010Z,2013.00
2023-05-22T07:34:17.913Z,2145.00
2023-05-22T07:35:17.908Z,2308.00
2023-05-22T07:36:17.897Z,2411.00
2023-05-22T07:37:17.883Z,2520.00
2023-05-22T07:38:18.007Z,2632.00
2023-05-22T07:39:17.870Z,2708.00
2023-05-22T07:40:17.883Z,2782.00
2023-05-22T07:41:17.886Z,2830.00
2023-05-22T07:42:17.904Z,2862.00
2023-05-22T07:43:17.998Z,2879.00
2023-05-22T07:44:17.847Z,2921.00
2023-05-22T07:45:17.848Z,2935.00
2023-05-22T07:46:17.902Z,2951.00
2023-05-22T07:47:17.828Z,2985.00
2023-05-22T07:48:18.055Z,3006.00
2023-05-22T07:49:17.867Z,2998.00
2023-05-22T07:50:17.812Z,2997.00
2023-05-22T07:51:17.797Z,2999.00
2023-05-22T07:52:17.809Z,2996.00
2023-05-22T07:53:17.808Z,2993.00
2023-05-22T07:54:18.022Z,3000.00
2023-05-22T07:55:17.781Z,2997.00
2023-05-22T07:56:17.804Z,2996.00
2023-05-22T07:57:17.763Z,2985.00
2023-05-22T07:58:18.027Z,2975.00
2023-05-22T07:59:17.795Z,3002.00
2023-05-22T08:00:18.019Z,3008.00
2023-05-22T08:01:17.757Z,3018.00
2023-05-22T08:02:17.792Z,3042.00
2023-05-22T08:03:18.151Z,3047.00
2023-05-22T08:04:17.838Z,3045.00
2023-05-22T08:05:18.065Z,3042.00
2023-05-22T08:06:17.715Z,3044.00
2023-05-22T08:07:17.711Z,3028.00
2023-05-22T08:08:17.694Z,3027.00
2023-05-22T08:09:17.695Z,2984.00
2023-05-22T08:10:17.690Z,2926.00
2023-05-22T08:11:17.692Z,2914.00
2023-05-22T08:12:17.737Z,2899.00
2023-05-22T08:13:17.828Z,2894.00
2023-05-22T08:14:17.855Z,2888.00
2023-05-22T08:15:17.860Z,2873.00
2023-05-22T08:16:17.890Z,2859.00
2023-05-22T08:17:17.982Z,2840.00
2023-05-22T08:18:18.037Z,2838.00
2023-05-22T08:19:18.141Z,2827.00
2023-05-22T08:20:18.179Z,2817.00
2023-05-22T08:21:18.187Z,2752.00
2023-05-22T08:22:18.230Z,2696.00
2023-05-22T08:23:18.536Z,2655.00
2023-05-22T08:24:18.308Z,2644.00
2023-05-22T08:25:18.327Z,2608.00
2023-05-22T08:26:18.364Z,2316.00
2023-05-22T08:27:18.417Z,1723.00
2023-05-22T08:28:18.477Z,1600.00
2023-05-22T08:29:18.480Z,1418.00
2023-05-22T08:30:18.524Z,1495.00
2023-05-22T08:31:18.556Z,1380.00
2023-05-22T08:32:18.526Z,1410.00
2023-05-22T08:33:18.560Z,1473.00
2023-05-22T08:34:19.024Z,1104.00
2023-05-22T08:35:18.543Z,1187.00
2023-05-22T08:36:18.600Z,1081.00
2023-05-22T08:37:18.543Z,961.00
2023-05-22T08:38:18.550Z,893.00
2023-05-22T08:39:19.081Z,944.00
2023-05-22T08:40:18.582Z,639.00
2023-05-22T08:41:18.632Z,562.00
2023-05-22T08:42:18.712Z,571.00
2023-05-22T08:43:18.753Z,629.00
2023-05-22T08:44:18.831Z,522.00
2023-05-22T08:45:18.873Z,502.00
2023-05-22T08:46:18.950Z,501.00
2023-05-22T08:47:19.196Z,485.00
2023-05-22T08:48:19.068Z,445.00
2023-05-22T08:49:19.875Z,500.00
2023-05-22T08:50:19.048Z,496.00
2023-05-22T08:51:19.093Z,495.00
2023-05-22T08:52:19.132Z,521.00
2023-05-22T08:53:19.232Z,507.00
2023-05-22T08:54:19.191Z,500.00
2023-05-22T08:55:19.208Z,526.00
2023-05-22T08:56:19.217Z,585.00
2023-05-22T08:57:19.269Z,657.00
2023-05-22T08:58:19.276Z,925.00
2023-05-22T08:59:19.544Z,656.00
2023-05-22T09:00:19.344Z,628.00
2023-05-22T09:01:19.385Z,608.00
2023-05-22T09:02:19.351Z,556.00
2023-05-22T09:03:19.385Z,500.00
2023-05-22T09:04:19.369Z,470.00
2023-05-22T09:05:19.399Z,478.00
2023-05-22T09:06:19.384Z,422.00
2023-05-22T09:07:19.395Z,485.00
2023-05-22T09:08:21.230Z,505.00
2023-05-22T09:09:19.464Z,500.00
2023-05-22T09:10:19.415Z,517.00
2023-05-22T09:11:19.427Z,550.00
2023-05-22T09:12:19.420Z,581.00
2023-05-22T09:13:19.429Z,543.00
2023-05-22T09:14:19.438Z,571.00
2023-05-22T09:15:19.472Z,644.00
2023-05-22T09:16:19.507Z,563.00
2023-05-22T09:17:19.463Z,532.00
2023-05-22T09:18:19.548Z,500.00
2023-05-22T09:19:19.526Z,455.00
2023-05-22T09:20:19.459Z,446.00
2023-05-22T09:21:29.723Z,483.00
2023-05-22T09:22:21.773Z,484.00
2023-05-22T09:23:19.425Z,485.00
2023-05-22T09:24:19.432Z,484.00
2023-05-22T09:25:19.449Z,488.00
2023-05-22T09:26:19.425Z,543.00
2023-05-22T09:27:19.404Z,723.00
2023-05-22T09:28:19.420Z,570.00
2023-05-22T09:29:19.401Z,524.00
2023-05-22T09:30:19.408Z,501.00
2023-05-22T09:31:19.482Z,477.00
2023-05-22T09:32:19.379Z,531.00
2023-05-22T09:33:19.559Z,540.00
2023-05-22T09:34:19.361Z,521.00
2023-05-22T09:35:19.370Z,480.00
2023-05-22T09:36:19.357Z,467.00
2023-05-22T09:37:19.330Z,457.00
2023-05-22T09:38:19.581Z,505.00
2023-05-22T09:39:19.324Z,483.00
2023-05-22T09:40:19.321Z,631.00
2023-05-22T09:41:19.313Z,803.00
2023-05-22T09:42:19.320Z,1026.00
2023-05-22T09:43:19.305Z,1253.00
2023-05-22T09:44:19.284Z,1497.00
2023-05-22T09:45:19.273Z,1281.00
2023-05-22T09:46:19.323Z,1182.00
2023-05-22T09:47:19.301Z,1004.00
2023-05-22T09:48:19.558Z,685.00
2023-05-22T09:49:19.282Z,650.00
2023-05-22T09:50:19.275Z,683.00
2023-05-22T09:51:19.256Z,558.00
2023-05-22T09:52:19.239Z,490.00
2023-05-22T09:53:19.222Z,502.00
2023-05-22T09:54:19.221Z,512.00
2023-05-22T09:55:19.219Z,485.00
2023-05-22T09:56:27.225Z,506.00
2023-05-22T09:57:20.216Z,507.00
2023-05-22T09:58:19.197Z,506.00
2023-05-22T09:59:19.190Z,527.00
2023-05-22T10:00:19.194Z,568.00
2023-05-22T10:01:19.242Z,541.00
2023-05-22T10:02:19.171Z,499.00
2023-05-22T10:03:19.554Z,526.00
2023-05-22T10:04:19.220Z,524.00
2023-05-22T10:05:19.164Z,495.00
2023-05-22T10:06:19.175Z,502.00
2023-05-22T10:07:19.209Z,497.00
2023-05-22T10:08:19.260Z,511.00
2023-05-22T10:09:19.785Z,533.00
2023-05-22T10:10:19.327Z,585.00
2023-05-22T10:11:19.391Z,700.00
2023-05-22T10:12:19.447Z,1067.00
2023-05-22T10:13:19.591Z,1212.00
2023-05-22T10:14:19.537Z,1290.00
2023-05-22T10:15:19.607Z,1178.00
2023-05-22T10:16:19.691Z,744.00
2023-05-22T10:17:19.733Z,598.00
2023-05-22T10:18:19.778Z,606.00
2023-05-22T10:19:20.096Z,546.00
2023-05-22T10:20:19.887Z,511.00
2023-05-22T10:21:19.930Z,570.00
2023-05-22T10:22:19.960Z,519.00
2023-05-22T10:23:20.063Z,500.00
2023-05-22T10:24:20.068Z,485.00
2023-05-22T10:25:20.121Z,457.00
2023-05-22T10:26:20.167Z,449.00
2023-05-22T10:27:20.200Z,518.00
2023-05-22T10:28:20.251Z,805.00
2023-05-22T10:29:20.669Z,1364.00
2023-05-22T10:30:20.343Z,2017.00
2023-05-22T10:31:20.326Z,2499.00
2023-05-22T10:32:20.345Z,2555.00
2023-05-22T10:33:20.705Z,2947.00
2023-05-22T10:34:20.348Z,2766.00
2023-05-22T10:35:20.351Z,2261.00
2023-05-22T10:36:20.369Z,1639.00
2023-05-22T10:37:20.899Z,1397.00
2023-05-22T10:38:20.342Z,1241.00
2023-05-22T10:39:20.354Z,762.00
2023-05-22T10:40:20.466Z,548.00
2023-05-22T10:41:20.381Z,493.00
2023-05-22T10:42:20.404Z,500.00
2023-05-22T10:43:20.463Z,452.00
2023-05-22T10:44:20.506Z,475.00
2023-05-22T10:45:20.669Z,500.00
2023-05-22T10:46:20.714Z,522.00
2023-05-22T10:47:20.674Z,536.00
2023-05-22T10:48:20.692Z,554.00
2023-05-22T10:49:20.705Z,928.00
2023-05-22T10:50:20.699Z,2245.00
2023-05-22T10:51:20.690Z,2809.00
2023-05-22T10:52:20.714Z,2545.00
2023-05-22T10:53:20.741Z,2638.00
2023-05-22T10:54:20.748Z,1994.00
2023-05-22T10:55:20.734Z,1877.00
2023-05-22T10:56:23.611Z,1529.00
2023-05-22T10:57:20.757Z,1536.00
2023-05-22T10:58:20.755Z,1536.00
2023-05-22T10:59:20.742Z,895.00
2023-05-22T11:00:20.754Z,633.00
2023-05-22T11:01:20.840Z,601.00
2023-05-22T11:02:20.819Z,571.00
2023-05-22T11:03:21.196Z,1267.00
2023-05-22T11:04:20.809Z,761.00
2023-05-22T11:05:20.726Z,1245.00
2023-05-22T11:06:20.691Z,2003.00
2023-05-22T11:07:20.672Z,2407.00
2023-05-22T11:08:20.680Z,2942.00
2023-05-22T11:09:20.685Z,3464.00
2023-05-22T11:10:20.670Z,3674.00
2023-05-22T11:11:20.645Z,4063.00
2023-05-22T11:12:20.710Z,4011.00
2023-05-22T11:13:21.113Z,4369.00
2023-05-22T11:14:20.623Z,4762.00
2023-05-22T11:15:20.631Z,5022.00
2023-05-22T11:16:20.645Z,5077.00
2023-05-22T11:17:20.685Z,4985.00
2023-05-22T11:18:21.135Z,4963.00
2023-05-22T11:19:23.817Z,4981.00
2023-05-22T11:20:20.635Z,5089.00
2023-05-22T11:21:20.594Z,5084.00
2023-05-22T11:22:20.594Z,5181.00
2023-05-22T11:23:20.572Z,5233.00
2023-05-22T11:24:20.583Z,5314.00
2023-05-22T11:25:20.573Z,5353.00
2023-05-22T11:26:20.566Z,5387.00
2023-05-22T11:27:20.546Z,5446.00
2023-05-22T11:28:20.576Z,5488.00
2023-05-22T11:29:20.536Z,5536.00
2023-05-22T11:30:20.514Z,5560.00
2023-05-22T11:31:20.566Z,5575.00
2023-05-22T11:32:20.535Z,5584.00
2023-05-22T11:33:20.759Z,5616.00
2023-05-22T11:34:20.523Z,5628.00
2023-05-22T11:35:20.487Z,5634.00
2023-05-22T11:36:20.481Z,5650.00
2023-05-22T11:37:20.504Z,5653.00
2023-05-22T11:38:20.508Z,5681.00
2023-05-22T11:39:20.479Z,5706.00
2023-05-22T11:40:20.475Z,5685.00
2023-05-22T11:41:20.468Z,5713.00
2023-05-22T11:42:20.476Z,5688.00
2023-05-22T11:43:20.460Z,5675.00
2023-05-22T11:44:20.441Z,5669.00
2023-05-22T11:45:20.447Z,5666.00
2023-05-22T11:46:20.470Z,5661.00
2023-05-22T11:47:20.419Z,5632.00
2023-05-22T11:48:20.422Z,5620.00
2023-05-22T11:49:20.548Z,5624.00
2023-05-22T11:50:33.177Z,5625.00
2023-05-22T11:51:21.516Z,5625.00
2023-05-22T11:52:20.521Z,5604.00
2023-05-22T11:53:20.508Z,5577.00
2023-05-22T11:54:20.486Z,5606.00
2023-05-22T11:55:20.482Z,5580.00
2023-05-22T11:56:20.488Z,5597.00
2023-05-22T11:57:20.473Z,5592.00
2023-05-22T11:58:20.454Z,5505.00
2023-05-22T11:59:20.444Z,5481.00
2023-05-22T12:00:20.493Z,5469.00
2023-05-22T12:01:20.437Z,5488.00
2023-05-22T12:02:20.442Z,5499.00
2023-05-22T12:03:20.677Z,5472.00
2023-05-22T12:04:20.515Z,5463.00
2023-05-22T12:05:20.501Z,5423.00
2023-05-22T12:06:20.452Z,5441.00
2023-05-22T12:07:20.396Z,5444.00
2023-05-22T12:08:20.609Z,5457.00
2023-05-22T12:09:20.404Z,5454.00